Latest Weather Observations for Mount Hotham

IDV60801

Issued at 12:32 am EST Wednesday 27 September 2017 (issued every 30 minutes, with the page automatically refreshed every 10 minutes)

About weather observations | Map of weather stations | Latest weather observations for VIC | Other Formats
Station Details ID: 083085 Name: MOUNT HOTHAM Lat: -36.98 Lon: 147.13 Height: 1849.0 m
Data from the previous 72 hours. | See also: Recent months at Mount Hotham
Date/Time
EST
Temp
°C
App
Temp
°C
Dew
Point
°C
Rel
Hum
%
Delta-T
°C
Wind Press
QNH
hPa
Press
MSL
hPa
Rain since
9am
mm
Dir  Spd
km/h
Gust
km/h
Spd
kts
Gust
kts
27/12:30am 3.2 - - - - N 28 30 15 16 - - -
27/12:00am 2.5 - - - - N 28 33 15 18 - - -
 
Date/Time
EST
Temp
°C
App
Temp
°C
Dew
Point
°C
Rel
Hum
%
Delta-T
°C
Wind Press
QNH
hPa
Press
MSL
hPa
Rain since
9am
mm
Dir  Spd
km/h
Gust
km/h
Spd
kts
Gust
kts
26/11:30pm 2.0 - - - - N 24 30 13 16 - - -
26/11:00pm 2.6 - - - - N 22 28 12 15 - - -
26/10:30pm 2.9 - - - - NNW 17 24 9 13 - - -
26/10:00pm 2.0 - - - - N 22 26 12 14 - - -
26/09:30pm 1.9 - - - - N 17 20 9 11 - - -
26/09:00pm 1.6 - - - - N 19 20 10 11 - - -
26/08:30pm 0.1 - - - - N 20 24 11 13 - - -
26/08:00pm 0.1 - - - - N 17 19 9 10 - - -
26/07:30pm 2.0 - - - - N 7 9 4 5 - - -
26/07:00pm 0.1 - - - - N 13 15 7 8 - - -
26/06:30pm 0.5 - - - - N 17 20 9 11 - - -
26/06:00pm 0.7 - - - - NW 15 17 8 9 - - -
26/05:30pm 2.3 - - - - WNW 15 19 8 10 - - -
26/05:00pm 2.2 - - - - N 11 17 6 9 - - -
26/04:30pm 2.3 - - - - NNW 15 19 8 10 - - -
26/04:00pm 2.8 - - - - NNW 15 20 8 11 - - -
26/03:30pm 2.6 - - - - NNW 13 17 7 9 - - -
26/03:00pm 2.6 - - - - NNW 15 20 8 11 - - -
26/02:30pm 2.6 - - - - NNW 11 19 6 10 - - -
26/02:00pm 2.1 - - - - NNW 17 24 9 13 - - -
26/01:30pm 1.9 - - - - NW 17 26 9 14 - - -
26/01:00pm 1.8 - - - - NW 13 20 7 11 - - -
26/12:30pm 1.3 - - - - N 13 17 7 9 - - -
26/12:00pm 0.8 - - - - NW 15 19 8 10 - - -
26/11:30am 2.4 - - - - SW 2 6 1 3 - - -
26/11:00am 1.2 - - - - SSW 11 20 6 11 - - -
26/10:30am 0.7 - - - - SW 20 28 11 15 - - -
26/10:00am -0.1 - - - - SW 24 33 13 18 - - -
26/09:30am -0.2 - - - - SW 26 32 14 17 - - -
26/09:00am -0.8 - - - - SW 22 30 12 16 - - -
26/08:30am -1.7 - - - - WSW 26 30 14 16 - - -
26/08:00am -2.0 - - - - SW 28 37 15 20 - - -
26/07:30am -2.1 - - - - SW 30 37 16 20 - - -
26/07:00am -2.8 - - - - SW 32 41 17 22 - - -
26/06:30am -3.2 - - - - WSW 32 39 17 21 - - -
26/06:09am -3.1 - - - - W 39 48 21 26 - - -
26/06:00am -3.4 - - - - WNW 39 48 21 26 - - -
26/05:30am -4.8 - - - - WNW 33 43 18 23 - - -
26/05:00am -5.4 - - - - WNW 30 35 16 19 - - -
26/04:30am -5.3 - - - - WNW 32 35 17 19 - - -
26/04:00am -5.0 - - - - WNW 30 37 16 20 - - -
26/03:30am -5.2 - - - - WNW 32 39 17 21 - - -
26/03:00am -4.7 - - - - WNW 26 32 14 17 - - -
26/02:30am -4.7 - - - - WNW 28 35 15 19 - - -
26/02:00am -4.4 - - - - WNW 24 32 13 17 - - -
26/01:30am -3.7 - - - - WNW 20 24 11 13 - - -
26/01:00am -3.4 - - - - WNW 22 30 12 16 - - -
26/12:30am -2.6 - - - - WNW 26 30 14 16 - - -
26/12:00am -2.2 - - - - WNW 26 33 14 18 - - -
 
Date/Time
EST
Temp
°C
App
Temp
°C
Dew
Point
°C
Rel
Hum
%
Delta-T
°C
Wind Press
QNH
hPa
Press
MSL
hPa
Rain since
9am
mm
Dir  Spd
km/h
Gust
km/h
Spd
kts
Gust
kts
25/11:30pm -2.0 - - - - WNW 22 32 12 17 - - -
25/11:00pm -1.8 - - - - WNW 24 33 13 18 - - -
25/10:30pm -1.7 - - - - WNW 22 33 12 18 - - -
25/10:00pm -1.8 - - - - WNW 24 33 13 18 - - -
25/09:30pm -1.4 - - - - WNW 22 30 12 16 - - -
25/09:00pm -1.3 - - - - WNW 20 28 11 15 - - -
25/08:30pm -1.2 - - - - WNW 26 35 14 19 - - -
25/08:00pm -1.2 - - - - WNW 30 50 16 27 - - -
25/07:56pm -1.2 - - - - WNW 28 50 15 27 - - -
25/07:30pm -1.0 - - - - WNW 24 48 13 26 - - -
25/07:00pm -0.8 - - - - WNW 26 37 14 20 - - -
25/06:30pm -0.8 - - - - WNW 28 41 15 22 - - -
25/06:05pm -0.9 - - - - WNW 28 46 15 25 - - -
25/06:00pm -0.8 - - - - WNW 26 44 14 24 - - -
25/05:30pm -0.6 - - - - WNW 32 54 17 29 - - -
25/05:21pm -0.6 - - - - WNW 28 50 15 27 - - -
25/05:00pm -0.3 - - - - WNW 30 39 16 21 - - -
25/04:52pm -0.3 - - - - WNW 33 52 18 28 - - -
25/04:30pm -0.3 - - - - WNW 39 56 21 30 - - -
25/04:00pm -0.3 - - - - WNW 39 59 21 32 - - -
25/03:43pm -0.4 - - - - NW 41 59 22 32 - - -
25/03:30pm -0.3 - - - - WNW 35 48 19 26 - - -
25/03:23pm -0.4 - - - - WNW 35 56 19 30 - - -
25/03:00pm -0.3 - - - - NW 39 57 21 31 - - -
25/02:33pm -0.3 - - - - NW 35 57 19 31 - - -
25/02:30pm -0.3 - - - - NW 33 50 18 27 - - -
25/02:17pm -0.4 - - - - NW 32 52 17 28 - - -
25/02:03pm -0.8 - - - - NW 35 52 19 28 - - -
25/02:00pm -0.7 - - - - NNW 35 52 19 28 - - -
25/01:48pm -1.0 - - - - WNW 33 52 18 28 - - -
25/01:35pm -0.4 - - - - NW 32 50 17 27 - - -
25/01:30pm -0.4 - - - - NW 33 50 18 27 - - -
25/01:07pm -0.3 - - - - NNW 35 54 19 29 - - -
25/01:00pm -0.4 - - - - NW 37 54 20 29 - - -
25/12:57pm -0.4 - - - - NW 37 52 20 28 - - -
25/12:48pm -0.6 - - - - NW 37 52 20 28 - - -
25/12:39pm -0.3 - - - - NNW 39 54 21 29 - - -
25/12:37pm -0.3 - - - - NNW 41 59 22 32 - - -
25/12:33pm -0.2 - - - - NW 43 61 23 33 - - -
25/12:30pm -0.3 - - - - NNW 44 61 24 33 - - -
25/12:27pm -0.2 - - - - NNW 43 61 23 33 - - -
25/12:12pm -0.2 - - - - NNW 39 57 21 31 - - -
25/12:10pm -0.2 - - - - NNW 39 57 21 31 - - -
25/12:00pm -0.2 - - - - NNW 46 69 25 37 - - -
25/11:59am -0.2 - - - - NNW 48 69 26 37 - - -
25/11:55am -0.2 - - - - N 46 69 25 37 - - -
25/11:42am -0.3 - - - - N 39 54 21 29 - - -
25/11:41am -0.3 - - - - N 41 54 22 29 - - -
25/11:38am -0.4 - - - - NNW 41 54 22 29 - - -
25/11:35am -0.3 - - - - NNW 44 63 24 34 - - -
25/11:30am -0.4 - - - - NW 41 63 22 34 - - -
25/11:24am -0.3 - - - - N 41 57 22 31 - - -
25/11:21am -0.3 - - - - N 43 57 23 31 - - -
25/11:15am -0.4 - - - - NNW 41 57 22 31 - - -
25/11:01am -0.4 - - - - NNW 43 61 23 33 - - -
25/11:00am -0.4 - - - - NNW 41 57 22 31 - - -
25/10:38am -0.4 - - - - NNW 39 59 21 32 - - -
25/10:30am -0.5 - - - - NNW 41 52 22 28 - - -
25/10:06am -0.5 - - - - NW 28 50 15 27 - - -
25/10:00am -0.4 - - - - NNW 28 37 15 20 - - -
25/09:30am -0.5 - - - - NW 32 39 17 21 - - -
25/09:00am -0.6 - - - - NNW 32 44 17 24 - - -
25/08:30am -0.6 - - - - NNW 33 44 18 24 - - -
25/08:00am -0.7 - - - - NNW 30 41 16 22 - - -
25/07:30am -0.9 - - - - NNW 32 43 17 23 - - -
25/07:00am -1.0 - - - - NW 30 37 16 20 - - -
25/06:30am -1.1 - - - - NW 30 44 16 24 - - -
25/06:00am -0.9 - - - - NNW 35 46 19 25 - - -
25/05:30am -1.2 - - - - NNW 33 46 18 25 - - -
25/05:00am -0.9 - - - - NNW 35 57 19 31 - - -
25/04:37am -0.9 - - - - NNW 33 52 18 28 - - -
25/04:30am -0.9 - - - - NNW 37 50 20 27 - - -
25/04:16am -0.8 - - - - NNW 41 59 22 32 - - -
25/04:00am -0.9 - - - - NNW 39 56 21 30 - - -
25/03:30am -0.8 - - - - NNW 41 61 22 33 - - -
25/03:20am -0.6 - - - - NW 39 59 21 32 - - -
25/03:00am -0.6 - - - - NNW 43 57 23 31 - - -
25/02:30am -0.5 - - - - NNW 43 65 23 35 - - -
25/02:17am -0.5 - - - - NNW 43 61 23 33 - - -
25/02:15am -0.5 - - - - NNW 41 59 22 32 - - -
25/02:14am -0.6 - - - - NNW 41 59 22 32 - - -
25/02:13am -0.6 - - - - N 43 59 23 32 - - -
25/02:00am -0.6 - - - - NNW 41 63 22 34 - - -
25/01:30am -0.5 - - - - NNW 46 70 25 38 - - -
25/01:00am -0.3 - - - - NNW 48 67 26 36 - - -
25/12:30am 0.0 - - - - NNW 48 74 26 40 - - -
25/12:00am 0.2 - - - - NW 48 70 26 38 - - -
 
Date/Time
EST
Temp
°C
App
Temp
°C
Dew
Point
°C
Rel
Hum
%
Delta-T
°C
Wind Press
QNH
hPa
Press
MSL
hPa
Rain since
9am
mm
Dir  Spd
km/h
Gust
km/h
Spd
kts
Gust
kts
24/11:30pm 0.4 - - - - NW 54 80 29 43 - - -
24/11:00pm 0.6 - - - - NW 56 83 30 45 - - -
24/10:30pm 0.9 - - - - NNW 59 91 32 49 - - -
24/10:00pm 1.1 - - - - NW 61 83 33 45 - - -
24/09:30pm 1.2 - - - - NNW 54 80 29 43 - - -
24/09:00pm 1.2 - - - - NNW 54 82 29 44 - - -
24/08:30pm 1.1 - - - - NNW 50 72 27 39 - - -
24/08:20pm 1.1 - - - - NNW 50 82 27 44 - - -
24/08:19pm 1.1 - - - - NNW 52 82 28 44 - - -
24/08:00pm 1.2 - - - - NNW 50 82 27 44 - - -
24/07:30pm 1.2 - - - - NNW 54 72 29 39 - - -
24/07:00pm 1.1 - - - - NNW 50 70 27 38 - - -
24/06:30pm 1.1 - - - - NNW 50 69 27 37 - - -
24/06:00pm 1.2 - - - - NNW 50 69 27 37 - - -
24/05:30pm 1.2 - - - - NNW 48 80 26 43 - - -
24/05:00pm 0.9 - - - - NNW 50 70 27 38 - - -
24/04:30pm 0.9 - - - - NNW 48 67 26 36 - - -
24/04:00pm 0.9 - - - - NNW 52 74 28 40 - - -
24/03:30pm 0.8 - - - - NNW 57 82 31 44 - - -
24/03:05pm 0.6 - - - - NNW 54 87 29 47 - - -
24/03:00pm 0.7 - - - - NNW 48 67 26 36 - - -
24/02:53pm 0.8 - - - - NNW 52 70 28 38 - - -
24/02:47pm 0.7 - - - - NNW 56 80 30 43 - - -
24/02:30pm 0.6 - - - - N 52 76 28 41 - - -
24/02:00pm 0.7 - - - - N 63 91 34 49 - - -
24/01:30pm 0.4 - - - - N 65 91 35 49 - - -
24/01:00pm 0.4 - - - - N 59 91 32 49 - - -
24/12:30pm 0.1 - - - - N 59 85 32 46 - - -
24/12:15pm 0.1 - - - - NNW 56 85 30 46 - - -
24/12:13pm 0.1 - - - - NNW 54 72 29 39 - - -
24/12:00pm 0.1 - - - - NNW 56 82 30 44 - - -
24/11:46am -0.1 - - - - NNW 57 89 31 48 - - -
24/11:30am -0.1 - - - - N 67 104 36 56 - - -
24/11:00am -0.2 - - - - N 65 93 35 50 - - -
24/10:30am -0.2 - - - - N 63 91 34 49 - - -
24/10:00am -0.2 - - - - NNW 57 87 31 47 - - -
24/09:42am -0.2 - - - - NNW 63 95 34 51 - - -
24/09:41am -0.2 - - - - NNW 65 95 35 51 - - -
24/09:36am -0.4 - - - - NNW 63 95 34 51 - - -
24/09:30am -0.2 - - - - NNW 56 80 30 43 - - -
24/09:00am -0.2 - - - - NNW 63 96 34 52 - - -
24/08:30am -0.2 - - - - NNW 54 82 29 44 - - -
24/08:27am -0.2 - - - - NNW 54 82 29 44 - - -
24/08:26am -0.1 - - - - NNW 50 72 27 39 - - -
24/08:00am -0.3 - - - - N 57 76 31 41 - - -
24/07:30am -0.5 - - - - N 48 69 26 37 - - -
24/07:02am -0.3 - - - - NNW 48 67 26 36 - - -
24/07:00am -0.2 - - - - NNW 50 67 27 36 - - -
24/06:30am 0.1 - - - - NNW 50 72 27 39 - - -
24/06:03am 0.0 - - - - NNW 44 65 24 35 - - -
24/06:00am 0.2 - - - - NNW 44 61 24 33 - - -
24/05:43am 0.2 - - - - N 48 70 26 38 - - -
24/05:38am 0.2 - - - - N 44 56 24 30 - - -
24/05:35am 0.4 - - - - N 44 54 24 29 - - -
24/05:30am 0.4 - - - - NNW 43 52 23 28 - - -
24/05:18am 0.5 - - - - NNW 41 59 22 32 - - -
24/05:00am 0.7 - - - - N 39 54 21 29 - - -
24/04:30am 0.9 - - - - N 39 56 21 30 - - -
24/04:00am 0.9 - - - - N 35 54 19 29 - - -
24/03:50am 1.0 - - - - N 37 57 20 31 - - -
24/03:30am 1.5 - - - - NNE 37 50 20 27 - - -
24/03:12am 1.7 - - - - N 39 52 21 28 - - -
24/03:00am 1.8 - - - - NNW 39 57 21 31 - - -
24/02:57am 1.9 - - - - NNW 39 57 21 31 - - -
24/02:30am 2.4 - - - - NNW 41 54 22 29 - - -
24/02:20am 2.5 - - - - NNW 39 57 21 31 - - -
24/02:00am 2.6 - - - - NNW 41 57 22 31 - - -
24/01:30am 2.9 - - - - NNW 44 63 24 34 - - -
24/01:00am 4.1 - - - - NNW 46 69 25 37 - - -

Other Formats:

Comma delimited format used in spreadsheet applications
http://www.bom.gov.au/fwo/IDV60801/IDV60801.94906.axf

JavaScript Object Notation format (JSON) in row-major order
http://www.bom.gov.au/fwo/IDV60801/IDV60801.94906.json